sensor_id;sensor_type;location;lat;lon;timestamp;pressure;altitude;pressure_sealevel;temperature;humidity
80333;BME280;69652;51.864;-2.246;2023-07-13T00:01:02;101337.56;;;16.07;76.76
80333;BME280;69652;51.864;-2.246;2023-07-13T00:03:28;101338.88;;;16.01;76.02
80333;BME280;69652;51.864;-2.246;2023-07-13T00:06:01;101341.94;;;15.99;76.02
80333;BME280;69652;51.864;-2.246;2023-07-13T00:08:30;101340.81;;;16.00;76.78
80333;BME280;69652;51.864;-2.246;2023-07-13T00:10:57;101341.94;;;15.99;76.67
80333;BME280;69652;51.864;-2.246;2023-07-13T00:13:23;101343.88;;;15.99;77.05
80333;BME280;69652;51.864;-2.246;2023-07-13T00:15:49;101335.97;;;15.97;76.20
80333;BME280;69652;51.864;-2.246;2023-07-13T00:18:14;101340.31;;;15.98;76.71
80333;BME280;69652;51.864;-2.246;2023-07-13T00:20:40;101341.13;;;15.99;76.75
80333;BME280;69652;51.864;-2.246;2023-07-13T00:23:06;101350.28;;;15.94;77.01
80333;BME280;69652;51.864;-2.246;2023-07-13T00:25:32;101346.13;;;15.97;77.00
80333;BME280;69652;51.864;-2.246;2023-07-13T00:27:58;101333.88;;;15.94;76.20
80333;BME280;69652;51.864;-2.246;2023-07-13T00:30:23;101331.47;;;15.93;77.04
80333;BME280;69652;51.864;-2.246;2023-07-13T00:32:49;101341.16;;;15.90;76.81
80333;BME280;69652;51.864;-2.246;2023-07-13T00:35:15;101333.56;;;15.96;76.68
80333;BME280;69652;51.864;-2.246;2023-07-13T00:37:42;101331.00;;;15.91;76.67
80333;BME280;69652;51.864;-2.246;2023-07-13T00:40:09;101327.28;;;15.86;76.80
80333;BME280;69652;51.864;-2.246;2023-07-13T00:42:34;101332.59;;;15.83;77.83
80333;BME280;69652;51.864;-2.246;2023-07-13T00:47:49;101328.91;;;15.79;77.32
80333;BME280;69652;51.864;-2.246;2023-07-13T00:50:16;101335.00;;;15.84;78.14
80333;BME280;69652;51.864;-2.246;2023-07-13T00:52:46;101339.88;;;15.79;77.33
80333;BME280;69652;51.864;-2.246;2023-07-13T00:55:14;101337.94;;;15.79;77.62
80333;BME280;69652;51.864;-2.246;2023-07-13T00:57:41;101339.53;;;15.80;77.52
80333;BME280;69652;51.864;-2.246;2023-07-13T01:00:08;101333.72;;;15.82;77.62
80333;BME280;69652;51.864;-2.246;2023-07-13T01:02:39;101335.19;;;15.79;77.64
80333;BME280;69652;51.864;-2.246;2023-07-13T01:05:13;101333.25;;;15.80;78.12
80333;BME280;69652;51.864;-2.246;2023-07-13T01:07:39;101337.44;;;15.77;78.18
80333;BME280;69652;51.864;-2.246;2023-07-13T01:10:07;101339.88;;;15.79;77.68
80333;BME280;69652;51.864;-2.246;2023-07-13T01:12:33;101336.00;;;15.80;77.53
80333;BME280;69652;51.864;-2.246;2023-07-13T01:15:00;101333.75;;;15.73;77.72
80333;BME280;69652;51.864;-2.246;2023-07-13T01:17:28;101324.41;;;15.74;77.65
80333;BME280;69652;51.864;-2.246;2023-07-13T01:19:54;101327.31;;;15.69;78.17
80333;BME280;69652;51.864;-2.246;2023-07-13T01:22:20;101321.50;;;15.71;78.74
80333;BME280;69652;51.864;-2.246;2023-07-13T01:24:50;101321.34;;;15.67;78.48
80333;BME280;69652;51.864;-2.246;2023-07-13T01:27:23;101326.03;;;15.67;78.73
80333;BME280;69652;51.864;-2.246;2023-07-13T01:29:53;101329.09;;;15.65;78.59
80333;BME280;69652;51.864;-2.246;2023-07-13T01:32:27;101336.00;;;15.63;78.39
80333;BME280;69652;51.864;-2.246;2023-07-13T01:34:53;101327.78;;;15.63;78.28
80333;BME280;69652;51.864;-2.246;2023-07-13T01:37:23;101324.88;;;15.59;79.02
80333;BME280;69652;51.864;-2.246;2023-07-13T01:39:48;101320.53;;;15.58;78.80
80333;BME280;69652;51.864;-2.246;2023-07-13T01:42:14;101320.22;;;15.60;77.99
80333;BME280;69652;51.864;-2.246;2023-07-13T01:44:40;101318.59;;;15.59;78.26
80333;BME280;69652;51.864;-2.246;2023-07-13T01:47:06;101312.31;;;15.58;78.77
80333;BME280;69652;51.864;-2.246;2023-07-13T01:49:31;101317.03;;;15.58;78.28
80333;BME280;69652;51.864;-2.246;2023-07-13T01:51:57;101316.22;;;15.57;78.25
80333;BME280;69652;51.864;-2.246;2023-07-13T01:54:22;101321.69;;;15.57;79.33
80333;BME280;69652;51.864;-2.246;2023-07-13T01:56:48;101308.63;;;15.63;78.43
80333;BME280;69652;51.864;-2.246;2023-07-13T01:59:14;101311.88;;;15.56;78.60
80333;BME280;69652;51.864;-2.246;2023-07-13T02:01:39;101301.06;;;15.60;78.79
80333;BME280;69652;51.864;-2.246;2023-07-13T02:04:05;101306.41;;;15.56;78.76
80333;BME280;69652;51.864;-2.246;2023-07-13T02:06:30;101316.81;;;15.54;79.40
80333;BME280;69652;51.864;-2.246;2023-07-13T02:08:57;101313.44;;;15.48;78.94
80333;BME280;69652;51.864;-2.246;2023-07-13T02:11:23;101308.63;;;15.45;79.60
80333;BME280;69652;51.864;-2.246;2023-07-13T02:13:48;101305.53;;;15.47;79.04
80333;BME280;69652;51.864;-2.246;2023-07-13T02:16:14;101308.28;;;15.47;79.92
80333;BME280;69652;51.864;-2.246;2023-07-13T02:18:39;101297.00;;;15.48;78.96
80333;BME280;69652;51.864;-2.246;2023-07-13T02:21:04;101300.22;;;15.50;79.50
80333;BME280;69652;51.864;-2.246;2023-07-13T02:23:30;101307.81;;;15.45;79.42
80333;BME280;69652;51.864;-2.246;2023-07-13T02:25:56;101305.06;;;15.45;80.21
80333;BME280;69652;51.864;-2.246;2023-07-13T02:28:22;101308.94;;;15.44;80.25
80333;BME280;69652;51.864;-2.246;2023-07-13T02:30:47;101299.13;;;15.43;79.50
80333;BME280;69652;51.864;-2.246;2023-07-13T02:33:13;101301.38;;;15.41;79.84
80333;BME280;69652;51.864;-2.246;2023-07-13T02:35:38;101302.97;;;15.42;80.48
80333;BME280;69652;51.864;-2.246;2023-07-13T02:38:04;101304.28;;;15.44;80.36
80333;BME280;69652;51.864;-2.246;2023-07-13T02:40:29;101304.59;;;15.43;79.67
80333;BME280;69652;51.864;-2.246;2023-07-13T02:42:58;101302.66;;;15.43;80.84
80333;BME280;69652;51.864;-2.246;2023-07-13T02:45:24;101303.47;;;15.44;80.70
80333;BME280;69652;51.864;-2.246;2023-07-13T02:47:49;101304.28;;;15.44;80.67
80333;BME280;69652;51.864;-2.246;2023-07-13T02:50:15;101307.31;;;15.43;80.40
80333;BME280;69652;51.864;-2.246;2023-07-13T02:52:40;101307.66;;;15.41;80.79
80333;BME280;69652;51.864;-2.246;2023-07-13T02:55:06;101308.44;;;15.42;80.21
80333;BME280;69652;51.864;-2.246;2023-07-13T02:57:31;101319.38;;;15.42;79.95
80333;BME280;69652;51.864;-2.246;2023-07-13T02:59:58;101306.34;;;15.39;80.38
80333;BME280;69652;51.864;-2.246;2023-07-13T03:02:24;101301.19;;;15.37;80.41
80333;BME280;69652;51.864;-2.246;2023-07-13T03:04:50;101308.44;;;15.33;80.78
80333;BME280;69652;51.864;-2.246;2023-07-13T03:07:15;101309.72;;;15.36;80.46
80333;BME280;69652;51.864;-2.246;2023-07-13T03:09:41;101308.59;;;15.37;80.79
80333;BME280;69652;51.864;-2.246;2023-07-13T03:12:07;101318.41;;;15.38;80.69
80333;BME280;69652;51.864;-2.246;2023-07-13T03:14:32;101315.69;;;15.38;81.44
80333;BME280;69652;51.864;-2.246;2023-07-13T03:16:58;101305.22;;;15.40;80.76
80333;BME280;69652;51.864;-2.246;2023-07-13T03:19:23;101310.22;;;15.38;81.23
80333;BME280;69652;51.864;-2.246;2023-07-13T03:21:49;101309.41;;;15.37;81.79
80333;BME280;69652;51.864;-2.246;2023-07-13T03:24:14;101318.41;;;15.38;81.31
80333;BME280;69652;51.864;-2.246;2023-07-13T03:26:40;101317.59;;;15.37;81.88
80333;BME280;69652;51.864;-2.246;2023-07-13T03:29:06;101313.75;;;15.38;81.37
80333;BME280;69652;51.864;-2.246;2023-07-13T03:31:34;101320.19;;;15.42;81.76
80333;BME280;69652;51.864;-2.246;2023-07-13T03:33:59;101317.78;;;15.41;81.87
80333;BME280;69652;51.864;-2.246;2023-07-13T03:36:27;101328.22;;;15.39;81.65
80333;BME280;69652;51.864;-2.246;2023-07-13T03:38:58;101327.09;;;15.40;81.53
80333;BME280;69652;51.864;-2.246;2023-07-13T03:41:24;101325.50;;;15.39;81.78
80333;BME280;69652;51.864;-2.246;2023-07-13T03:43:51;101323.56;;;15.39;81.95
80333;BME280;69652;51.864;-2.246;2023-07-13T03:46:17;101322.94;;;15.42;82.10
80333;BME280;69652;51.864;-2.246;2023-07-13T03:48:44;101333.56;;;15.44;81.64
80333;BME280;69652;51.864;-2.246;2023-07-13T03:51:11;101327.59;;;15.42;81.82
80333;BME280;69652;51.864;-2.246;2023-07-13T03:53:40;101328.72;;;15.41;81.75
80333;BME280;69652;51.864;-2.246;2023-07-13T03:56:07;101326.78;;;15.41;81.91
80333;BME280;69652;51.864;-2.246;2023-07-13T03:58:34;101334.50;;;15.39;82.07
80333;BME280;69652;51.864;-2.246;2023-07-13T04:01:01;101335.63;;;15.38;82.79
80333;BME280;69652;51.864;-2.246;2023-07-13T04:03:28;101329.84;;;15.40;82.19
80333;BME280;69652;51.864;-2.246;2023-07-13T04:05:56;101328.22;;;15.39;81.88
80333;BME280;69652;51.864;-2.246;2023-07-13T04:08:30;101332.09;;;15.38;82.39
80333;BME280;69652;51.864;-2.246;2023-07-13T04:10:56;101331.28;;;15.37;82.01
80333;BME280;69652;51.864;-2.246;2023-07-13T04:13:22;101328.88;;;15.36;81.99
80333;BME280;69652;51.864;-2.246;2023-07-13T04:15:49;101340.28;;;15.38;83.01
80333;BME280;69652;51.864;-2.246;2023-07-13T04:18:14;101343.03;;;15.38;82.88
80333;BME280;69652;51.864;-2.246;2023-07-13T04:20:40;101344.97;;;15.37;82.63
80333;BME280;69652;51.864;-2.246;2023-07-13T04:23:05;101341.09;;;15.38;83.06
80333;BME280;69652;51.864;-2.246;2023-07-13T04:25:31;101343.84;;;15.38;82.76
80333;BME280;69652;51.864;-2.246;2023-07-13T04:27:56;101346.56;;;15.38;83.17
80333;BME280;69652;51.864;-2.246;2023-07-13T04:30:22;101341.28;;;15.42;82.65
80333;BME280;69652;51.864;-2.246;2023-07-13T04:32:48;101350.44;;;15.46;82.90
80333;BME280;69652;51.864;-2.246;2023-07-13T04:35:13;101358.81;;;15.49;82.82
80333;BME280;69652;51.864;-2.246;2023-07-13T04:37:40;101358.50;;;15.51;83.53
80333;BME280;69652;51.864;-2.246;2023-07-13T04:40:06;101360.09;;;15.52;83.25
80333;BME280;69652;51.864;-2.246;2023-07-13T04:42:37;101360.59;;;15.54;83.10
80333;BME280;69652;51.864;-2.246;2023-07-13T04:45:05;101366.28;;;15.58;83.20
80333;BME280;69652;51.864;-2.246;2023-07-13T04:47:30;101362.72;;;15.57;83.24
80333;BME280;69652;51.864;-2.246;2023-07-13T04:49:56;101366.41;;;15.61;83.22
80333;BME280;69652;51.864;-2.246;2023-07-13T04:52:23;101369.63;;;15.63;83.30
80333;BME280;69652;51.864;-2.246;2023-07-13T04:54:48;101365.28;;;15.62;82.34
80333;BME280;69652;51.864;-2.246;2023-07-13T04:57:14;101373.31;;;15.59;83.66
80333;BME280;69652;51.864;-2.246;2023-07-13T04:59:39;101377.84;;;15.63;82.77
80333;BME280;69652;51.864;-2.246;2023-07-13T05:02:05;101372.69;;;15.62;83.10
80333;BME280;69652;51.864;-2.246;2023-07-13T05:04:30;101374.97;;;15.68;83.77
80333;BME280;69652;51.864;-2.246;2023-07-13T05:06:56;101369.63;;;15.72;82.68
80333;BME280;69652;51.864;-2.246;2023-07-13T05:09:21;101369.63;;;15.72;82.64
80333;BME280;69652;51.864;-2.246;2023-07-13T05:11:47;101368.19;;;15.66;83.48
80333;BME280;69652;51.864;-2.246;2023-07-13T05:14:12;101375.59;;;15.65;83.49
80333;BME280;69652;51.864;-2.246;2023-07-13T05:16:38;101373.00;;;15.60;83.74
80333;BME280;69652;51.864;-2.246;2023-07-13T05:19:03;101374.13;;;15.59;83.07
80333;BME280;69652;51.864;-2.246;2023-07-13T05:21:29;101383.00;;;15.56;83.06
80333;BME280;69652;51.864;-2.246;2023-07-13T05:23:54;101385.53;;;15.52;82.88
80333;BME280;69652;51.864;-2.246;2023-07-13T05:26:20;101386.06;;;15.55;83.13
80333;BME280;69652;51.864;-2.246;2023-07-13T05:28:46;101386.56;;;15.57;82.29
80333;BME280;69652;51.864;-2.246;2023-07-13T05:31:12;101387.00;;;15.59;83.17
80333;BME280;69652;51.864;-2.246;2023-07-13T05:33:38;101384.63;;;15.57;82.68
80333;BME280;69652;51.864;-2.246;2023-07-13T05:36:03;101387.00;;;15.59;82.71
80333;BME280;69652;51.864;-2.246;2023-07-13T05:38:29;101381.06;;;15.57;83.13
80333;BME280;69652;51.864;-2.246;2023-07-13T05:40:56;101381.88;;;15.57;83.18
80333;BME280;69652;51.864;-2.246;2023-07-13T05:43:22;101388.63;;;15.60;84.00
80333;BME280;69652;51.864;-2.246;2023-07-13T05:45:48;101388.16;;;15.58;84.57
80333;BME280;69652;51.864;-2.246;2023-07-13T05:48:14;101388.78;;;15.63;83.34
80333;BME280;69652;51.864;-2.246;2023-07-13T05:50:40;101392.19;;;15.69;83.62
80333;BME280;69652;51.864;-2.246;2023-07-13T05:53:05;101387.34;;;15.66;84.66
80333;BME280;69652;51.864;-2.246;2023-07-13T05:55:31;101394.28;;;15.72;83.98
80333;BME280;69652;51.864;-2.246;2023-07-13T05:57:57;101391.38;;;15.77;84.14
80333;BME280;69652;51.864;-2.246;2023-07-13T06:00:23;101399.41;;;15.82;83.44
80333;BME280;69652;51.864;-2.246;2023-07-13T06:02:49;101397.97;;;15.84;83.43
80333;BME280;69652;51.864;-2.246;2023-07-13T06:05:15;101399.41;;;15.82;84.24
80333;BME280;69652;51.864;-2.246;2023-07-13T06:07:41;101403.63;;;15.79;84.49
80333;BME280;69652;51.864;-2.246;2023-07-13T06:10:07;101405.06;;;15.85;83.96
80333;BME280;69652;51.864;-2.246;2023-07-13T06:12:32;101401.19;;;15.86;83.52
80333;BME280;69652;51.864;-2.246;2023-07-13T06:14:57;101411.66;;;15.93;83.73
80333;BME280;69652;51.864;-2.246;2023-07-13T06:17:23;101415.06;;;15.90;82.56
80333;BME280;69652;51.864;-2.246;2023-07-13T06:19:48;101422.78;;;15.88;83.55
80333;BME280;69652;51.864;-2.246;2023-07-13T06:22:14;101415.06;;;15.99;82.90
80333;BME280;69652;51.864;-2.246;2023-07-13T06:24:39;101420.03;;;16.05;82.65
80333;BME280;69652;51.864;-2.246;2023-07-13T06:27:05;101417.16;;;16.10;80.86
80333;BME280;69652;51.864;-2.246;2023-07-13T06:29:30;101427.59;;;16.17;81.09
80333;BME280;69652;51.864;-2.246;2023-07-13T06:31:56;101424.53;;;16.27;79.95
80333;BME280;69652;51.864;-2.246;2023-07-13T06:34:22;101428.88;;;16.37;80.41
80333;BME280;69652;51.864;-2.246;2023-07-13T06:36:48;101433.53;;;16.45;79.37
80333;BME280;69652;51.864;-2.246;2023-07-13T06:39:13;101442.84;;;16.61;79.78
80333;BME280;69652;51.864;-2.246;2023-07-13T06:41:39;101434.78;;;16.73;79.59
80333;BME280;69652;51.864;-2.246;2023-07-13T06:44:05;101438.94;;;16.79;80.07
80333;BME280;69652;51.864;-2.246;2023-07-13T06:46:31;101439.09;;;16.83;80.03
80333;BME280;69652;51.864;-2.246;2023-07-13T06:48:57;101443.13;;;16.85;79.94
80333;BME280;69652;51.864;-2.246;2023-07-13T06:51:22;101439.22;;;16.95;79.56
80333;BME280;69652;51.864;-2.246;2023-07-13T06:53:48;101440.19;;;16.99;79.60
80333;BME280;69652;51.864;-2.246;2023-07-13T06:56:15;101440.53;;;16.98;79.09
80333;BME280;69652;51.864;-2.246;2023-07-13T06:58:40;101447.81;;;16.85;79.24
80333;BME280;69652;51.864;-2.246;2023-07-13T07:01:06;101450.72;;;16.80;78.39
80333;BME280;69652;51.864;-2.246;2023-07-13T07:03:31;101450.19;;;16.95;78.99
80333;BME280;69652;51.864;-2.246;2023-07-13T07:06:03;101452.78;;;16.91;77.34
80333;BME280;69652;51.864;-2.246;2023-07-13T07:08:31;101449.50;;;17.07;77.75
80333;BME280;69652;51.864;-2.246;2023-07-13T07:10:56;101455.16;;;17.10;78.01
80333;BME280;69652;51.864;-2.246;2023-07-13T07:13:22;101468.38;;;17.08;77.91
80333;BME280;69652;51.864;-2.246;2023-07-13T07:15:49;101464.97;;;17.11;77.33
80333;BME280;69652;51.864;-2.246;2023-07-13T07:18:15;101469.03;;;17.05;76.98
80333;BME280;69652;51.864;-2.246;2023-07-13T07:20:41;101471.94;;;17.09;77.46
80333;BME280;69652;51.864;-2.246;2023-07-13T07:23:06;101477.09;;;17.10;77.03
80333;BME280;69652;51.864;-2.246;2023-07-13T07:25:32;101464.63;;;17.13;76.44
80333;BME280;69652;51.864;-2.246;2023-07-13T07:28:00;101468.88;;;17.10;77.73
80333;BME280;69652;51.864;-2.246;2023-07-13T07:30:25;101464.31;;;17.14;76.53
80333;BME280;69652;51.864;-2.246;2023-07-13T07:32:51;101476.94;;;17.07;76.84
80333;BME280;69652;51.864;-2.246;2023-07-13T07:35:16;101472.09;;;17.04;76.87
80333;BME280;69652;51.864;-2.246;2023-07-13T07:37:41;101481.47;;;17.03;76.91
80333;BME280;69652;51.864;-2.246;2023-07-13T07:40:07;101471.72;;;17.14;77.07
80333;BME280;69652;51.864;-2.246;2023-07-13T07:42:33;101475.59;;;17.21;77.05
80333;BME280;69652;51.864;-2.246;2023-07-13T07:44:59;101475.25;;;17.23;76.33
80333;BME280;69652;51.864;-2.246;2023-07-13T07:47:26;101478.78;;;17.23;76.71
80333;BME280;69652;51.864;-2.246;2023-07-13T07:49:51;101478.63;;;17.28;76.56
80333;BME280;69652;51.864;-2.246;2023-07-13T07:52:17;101482.81;;;17.35;76.27
80333;BME280;69652;51.864;-2.246;2023-07-13T07:54:43;101485.00;;;17.41;75.77
80333;BME280;69652;51.864;-2.246;2023-07-13T07:57:09;101486.31;;;17.44;75.71
80333;BME280;69652;51.864;-2.246;2023-07-13T07:59:36;101488.19;;;17.52;75.29
80333;BME280;69652;51.864;-2.246;2023-07-13T08:02:01;101494.75;;;17.59;75.28
80333;BME280;69652;51.864;-2.246;2023-07-13T08:04:28;101494.97;;;17.54;75.25
80333;BME280;69652;51.864;-2.246;2023-07-13T08:06:53;101488.25;;;17.73;74.77
80333;BME280;69652;51.864;-2.246;2023-07-13T08:09:21;101480.63;;;17.78;74.13
80333;BME280;69652;51.864;-2.246;2023-07-13T08:11:47;101486.59;;;17.80;73.67
80333;BME280;69652;51.864;-2.246;2023-07-13T08:14:12;101488.56;;;17.71;73.72
80333;BME280;69652;51.864;-2.246;2023-07-13T08:16:37;101482.09;;;17.96;72.63
80333;BME280;69652;51.864;-2.246;2023-07-13T08:19:03;101477.50;;;18.09;72.29
80333;BME280;69652;51.864;-2.246;2023-07-13T08:21:29;101479.31;;;18.26;71.24
80333;BME280;69652;51.864;-2.246;2023-07-13T08:23:55;101478.63;;;18.29;70.93
80333;BME280;69652;51.864;-2.246;2023-07-13T08:26:21;101482.91;;;18.38;71.13
80333;BME280;69652;51.864;-2.246;2023-07-13T08:28:47;101475.94;;;18.20;70.61
80333;BME280;69652;51.864;-2.246;2023-07-13T08:31:13;101476.47;;;18.34;71.07
80333;BME280;69652;51.864;-2.246;2023-07-13T08:33:39;101480.97;;;18.39;70.15
80333;BME280;69652;51.864;-2.246;2023-07-13T08:36:06;101478.53;;;18.37;68.82
80333;BME280;69652;51.864;-2.246;2023-07-13T08:38:31;101477.66;;;18.46;70.02
80333;BME280;69652;51.864;-2.246;2023-07-13T08:40:57;101474.31;;;18.61;68.80
80333;BME280;69652;51.864;-2.246;2023-07-13T08:43:26;101469.53;;;18.82;67.66
80333;BME280;69652;51.864;-2.246;2023-07-13T08:46:01;101463.38;;;18.85;68.29
80333;BME280;69652;51.864;-2.246;2023-07-13T08:48:31;101463.41;;;19.09;67.45
80333;BME280;69652;51.864;-2.246;2023-07-13T08:51:02;101462.16;;;19.19;67.69
80333;BME280;69652;51.864;-2.246;2023-07-13T08:53:43;101466.38;;;19.17;66.04
80333;BME280;69652;51.864;-2.246;2023-07-13T08:56:18;101471.53;;;19.18;66.20
80333;BME280;69652;51.864;-2.246;2023-07-13T08:58:48;101467.53;;;19.16;66.41
80333;BME280;69652;51.864;-2.246;2023-07-13T09:04:14;101467.41;;;19.36;65.96
80333;BME280;69652;51.864;-2.246;2023-07-13T09:09:44;101470.88;;;19.21;65.93
80333;BME280;69652;51.864;-2.246;2023-07-13T09:21:10;101496.88;;;19.24;65.30
80333;BME280;69652;51.864;-2.246;2023-07-13T09:23:38;101494.69;;;19.05;66.49
80333;BME280;69652;51.864;-2.246;2023-07-13T09:26:09;101492.16;;;19.12;66.35
80333;BME280;69652;51.864;-2.246;2023-07-13T09:28:42;101496.63;;;19.04;67.99
80333;BME280;69652;51.864;-2.246;2023-07-13T09:34:11;101484.75;;;18.67;69.23
80333;BME280;69652;51.864;-2.246;2023-07-13T09:36:36;101492.56;;;18.77;69.05
80333;BME280;69652;51.864;-2.246;2023-07-13T09:41:57;101490.63;;;18.57;71.21
80333;BME280;69652;51.864;-2.246;2023-07-13T09:44:58;101492.59;;;18.57;71.33
80333;BME280;69652;51.864;-2.246;2023-07-13T09:47:29;101498.09;;;18.57;71.79
80333;BME280;69652;51.864;-2.246;2023-07-13T09:50:00;101496.97;;;18.37;73.35
80333;BME280;69652;51.864;-2.246;2023-07-13T09:52:27;101508.16;;;18.32;74.47
80333;BME280;69652;51.864;-2.246;2023-07-13T09:54:54;101506.63;;;18.22;73.22
80333;BME280;69652;51.864;-2.246;2023-07-13T09:57:25;101500.69;;;18.53;73.01
80333;BME280;69652;51.864;-2.246;2023-07-13T09:59:53;101495.53;;;19.30;70.49
80333;BME280;69652;51.864;-2.246;2023-07-13T10:02:23;101499.88;;;19.43;70.42
80333;BME280;69652;51.864;-2.246;2023-07-13T10:05:02;101494.88;;;19.57;68.76
80333;BME280;69652;51.864;-2.246;2023-07-13T10:07:29;101500.69;;;19.92;67.29
80333;BME280;69652;51.864;-2.246;2023-07-13T10:09:56;101495.91;;;20.17;66.98
80333;BME280;69652;51.864;-2.246;2023-07-13T10:12:23;101500.84;;;20.11;65.29
80333;BME280;69652;51.864;-2.246;2023-07-13T10:14:52;101498.94;;;20.00;66.57
80333;BME280;69652;51.864;-2.246;2023-07-13T10:17:29;101495.50;;;20.31;65.97
80333;BME280;69652;51.864;-2.246;2023-07-13T10:20:04;101499.50;;;20.05;65.29
80333;BME280;69652;51.864;-2.246;2023-07-13T10:22:45;101504.66;;;19.95;64.09
80333;BME280;69652;51.864;-2.246;2023-07-13T10:25:27;101499.47;;;20.17;64.47
80333;BME280;69652;51.864;-2.246;2023-07-13T10:27:58;101493.75;;;20.66;61.53
80333;BME280;69652;51.864;-2.246;2023-07-13T10:30:35;101490.94;;;20.78;61.25
80333;BME280;69652;51.864;-2.246;2023-07-13T10:33:10;101501.66;;;20.96;60.80
80333;BME280;69652;51.864;-2.246;2023-07-13T10:35:37;101503.31;;;21.79;57.90
80333;BME280;69652;51.864;-2.246;2023-07-13T10:38:11;101491.44;;;21.27;58.41
80333;BME280;69652;51.864;-2.246;2023-07-13T10:40:39;101485.50;;;22.50;56.54
80333;BME280;69652;51.864;-2.246;2023-07-13T10:43:31;101483.91;;;22.91;55.98
80333;BME280;69652;51.864;-2.246;2023-07-13T10:46:00;101496.94;;;22.90;54.86
80333;BME280;69652;51.864;-2.246;2023-07-13T10:48:27;101495.44;;;22.74;54.54
80333;BME280;69652;51.864;-2.246;2023-07-13T10:50:54;101477.28;;;22.53;54.92
80333;BME280;69652;51.864;-2.246;2023-07-13T10:53:31;101477.53;;;22.87;54.91
80333;BME280;69652;51.864;-2.246;2023-07-13T10:56:00;101469.22;;;23.10;54.20
80333;BME280;69652;51.864;-2.246;2023-07-13T10:58:38;101472.28;;;23.04;53.11
80333;BME280;69652;51.864;-2.246;2023-07-13T11:01:16;101488.28;;;22.50;53.76
80333;BME280;69652;51.864;-2.246;2023-07-13T11:04:11;101475.47;;;22.42;55.15
80333;BME280;69652;51.864;-2.246;2023-07-13T11:06:37;101491.84;;;22.12;55.56
80333;BME280;69652;51.864;-2.246;2023-07-13T11:09:19;101484.56;;;22.04;55.74
80333;BME280;69652;51.864;-2.246;2023-07-13T11:11:45;101476.69;;;22.25;56.20
80333;BME280;69652;51.864;-2.246;2023-07-13T11:14:27;101486.53;;;22.03;55.37
80333;BME280;69652;51.864;-2.246;2023-07-13T11:16:53;101478.19;;;22.61;53.91
80333;BME280;69652;51.864;-2.246;2023-07-13T11:22:09;101474.78;;;22.48;55.45
80333;BME280;69652;51.864;-2.246;2023-07-13T11:24:51;101469.25;;;22.48;55.02
80333;BME280;69652;51.864;-2.246;2023-07-13T11:27:37;101472.09;;;22.32;55.92
80333;BME280;69652;51.864;-2.246;2023-07-13T11:33:17;101502.97;;;21.02;61.51
80333;BME280;69652;51.864;-2.246;2023-07-13T11:36:00;101500.22;;;21.02;62.69
80333;BME280;69652;51.864;-2.246;2023-07-13T11:38:39;101506.63;;;20.74;62.75
80333;BME280;69652;51.864;-2.246;2023-07-13T11:41:17;101509.56;;;20.26;64.66
80333;BME280;69652;51.864;-2.246;2023-07-13T11:43:44;101500.81;;;20.36;62.77
80333;BME280;69652;51.864;-2.246;2023-07-13T11:46:26;101495.94;;;20.33;63.32
80333;BME280;69652;51.864;-2.246;2023-07-13T11:48:53;101511.91;;;19.99;68.92
80333;BME280;69652;51.864;-2.246;2023-07-13T11:51:32;101508.50;;;19.66;70.25
80333;BME280;69652;51.864;-2.246;2023-07-13T11:54:06;101505.31;;;19.64;69.04
80333;BME280;69652;51.864;-2.246;2023-07-13T11:56:36;101501.38;;;19.77;68.17
80333;BME280;69652;51.864;-2.246;2023-07-13T11:59:07;101505.88;;;19.57;67.06
80333;BME280;69652;51.864;-2.246;2023-07-13T12:01:52;101493.34;;;19.60;66.82
80333;BME280;69652;51.864;-2.246;2023-07-13T12:04:29;101498.63;;;19.40;66.53
80333;BME280;69652;51.864;-2.246;2023-07-13T12:07:15;101506.41;;;19.26;68.66
80333;BME280;69652;51.864;-2.246;2023-07-13T12:09:42;101506.84;;;19.16;68.72
80333;BME280;69652;51.864;-2.246;2023-07-13T12:12:11;101503.06;;;19.08;70.17
80333;BME280;69652;51.864;-2.246;2023-07-13T12:14:38;101506.06;;;18.70;71.96
80333;BME280;69652;51.864;-2.246;2023-07-13T12:17:13;101494.16;;;18.79;73.30
80333;BME280;69652;51.864;-2.246;2023-07-13T12:19:41;101490.47;;;19.07;72.11
80333;BME280;69652;51.864;-2.246;2023-07-13T12:22:11;101489.69;;;19.31;70.27
80333;BME280;69652;51.864;-2.246;2023-07-13T12:24:38;101487.84;;;19.23;70.65
80333;BME280;69652;51.864;-2.246;2023-07-13T12:27:05;101479.31;;;19.04;72.42
80333;BME280;69652;51.864;-2.246;2023-07-13T12:29:32;101483.91;;;19.12;72.14
80333;BME280;69652;51.864;-2.246;2023-07-13T12:31:59;101479.22;;;19.37;71.21
80333;BME280;69652;51.864;-2.246;2023-07-13T12:34:26;101479.34;;;19.40;70.70
80333;BME280;69652;51.864;-2.246;2023-07-13T12:36:53;101481.53;;;19.35;70.08
80333;BME280;69652;51.864;-2.246;2023-07-13T12:44:41;101467.06;;;19.38;69.95
80333;BME280;69652;51.864;-2.246;2023-07-13T12:47:11;101462.94;;;19.20;70.02
80333;BME280;69652;51.864;-2.246;2023-07-13T12:49:41;101473.16;;;19.31;69.42
80333;BME280;69652;51.864;-2.246;2023-07-13T12:52:31;101472.34;;;19.43;68.44
80333;BME280;69652;51.864;-2.246;2023-07-13T12:55:04;101464.22;;;19.34;69.78
80333;BME280;69652;51.864;-2.246;2023-07-13T12:57:30;101477.25;;;19.13;69.99
80333;BME280;69652;51.864;-2.246;2023-07-13T12:59:56;101468.09;;;18.97;70.18
80333;BME280;69652;51.864;-2.246;2023-07-13T13:02:33;101469.53;;;18.82;69.66
80333;BME280;69652;51.864;-2.246;2023-07-13T13:05:01;101471.94;;;18.71;69.04
80333;BME280;69652;51.864;-2.246;2023-07-13T13:07:29;101482.19;;;19.07;68.01
80333;BME280;69652;51.864;-2.246;2023-07-13T13:09:55;101486.63;;;19.00;68.58
80333;BME280;69652;51.864;-2.246;2023-07-13T13:12:22;101483.47;;;19.10;68.71
80333;BME280;69652;51.864;-2.246;2023-07-13T13:14:47;101485.94;;;18.91;70.84
80333;BME280;69652;51.864;-2.246;2023-07-13T13:17:27;101484.34;;;18.90;71.05
80333;BME280;69652;51.864;-2.246;2023-07-13T13:19:54;101474.84;;;18.87;72.55